Time;durP1;ratioP1;P1;durP2;ratioP2;P2;SDS_P1;SDS_P2;PMS_P1;PMS_P2;Temp;Humidity;BMP_temperature;BMP_pressure;BME280_temperature;BME280_humidity;BME280_pressure;Samples;Min_cycle;Max_cycle;Signal;HPM_P1;HPM_P2
2022/08/12 00:42:51;;;;;;;;;;;10.80;99.90;;;;;;5124934;27;19922;-56
2022/08/12 00:46:29;;;;;;;;;;;10.70;99.90;;;;;;5125282;27;19911;-56
2022/08/12 00:48:32;;;;;;;;;;;10.60;99.90;;;;;;5124683;27;19916;-56
2022/08/12 00:51:14;;;;;;;;;;;10.60;99.90;;;;;;5112496;27;20284;-56
2022/08/12 00:53:55;;;;;;;;;;;10.50;99.90;;;;;;5105020;27;19918;-55
2022/08/12 00:56:35;;;;;;;;;;;10.50;99.90;;;;;;5103986;27;19916;-57
2022/08/12 00:59:16;;;;;;;;;;;10.50;99.90;;;;;;5103729;27;19912;-56
2022/08/12 01:01:56;;;;;;;;;;;10.40;99.90;;;;;;5146042;27;19945;-56
2022/08/12 01:13:48;;;;;;;;;;;10.20;99.90;;;;;;5124803;27;20391;-56
2022/08/12 01:16:29;;;;;;;;;;;10.00;99.90;;;;;;5119160;27;19918;-56
2022/08/12 01:19:11;;;;;;;;;;;10.00;99.90;;;;;;5122467;27;20323;-56
2022/08/12 01:22:04;;;;;;;;;;;9.90;99.90;;;;;;5125231;27;19911;-56
2022/08/12 01:24:50;;;;;;;;;;;9.80;99.90;;;;;;5125018;27;20261;-56
2022/08/12 01:27:33;;;;;;;;;;;9.80;99.90;;;;;;5154957;27;19911;-54
2022/08/12 01:30:15;;;;;;;;;;;9.80;99.90;;;;;;5125019;27;19942;-56
2022/08/12 01:32:56;;;;;;;;;;;9.80;99.90;;;;;;5125104;27;20276;-57
2022/08/12 01:35:38;;;;;;;;;;;9.80;99.90;;;;;;5125132;27;19920;-56
2022/08/12 01:38:19;;;;;;;;;;;9.80;99.90;;;;;;5125502;27;20498;-56
2022/08/12 01:41:01;;;;;;;;;;;9.80;99.90;;;;;;5112674;27;19946;-55
2022/08/12 01:43:41;;;;;;;;;;;9.90;99.90;;;;;;5125597;27;19912;-56
2022/08/12 01:46:29;;;;;;;;;;;10.00;99.90;;;;;;5125295;27;19957;-56
2022/08/12 01:49:17;;;;;;;;;;;9.90;99.90;;;;;;5124645;27;20376;-56
2022/08/12 01:52:03;;;;;;;;;;;9.80;99.90;;;;;;5125358;27;19982;-55
2022/08/12 01:54:45;;;;;;;;;;;9.70;99.90;;;;;;5104955;27;19985;-56
2022/08/12 01:57:27;;;;;;;;;;;9.70;99.90;;;;;;5125148;27;19922;-56
2022/08/12 02:00:11;;;;;;;;;;;9.70;99.90;;;;;;5124752;27;19918;-56
2022/08/12 02:03:01;;;;;;;;;;;9.70;99.90;;;;;;5125371;27;19916;-56
2022/08/12 02:11:49;;;;;;;;;;;9.70;99.90;;;;;;5125589;27;19923;-56
2022/08/12 02:14:37;;;;;;;;;;;9.70;99.90;;;;;;5125237;27;19922;-57
2022/08/12 02:17:30;;;;;;;;;;;9.70;99.90;;;;;;5124395;27;19911;-56
2022/08/12 02:20:14;;;;;;;;;;;9.60;99.90;;;;;;5120267;27;19912;-55
2022/08/12 02:22:56;;;;;;;;;;;9.60;99.90;;;;;;5125380;27;19926;-55
2022/08/12 02:25:37;;;;;;;;;;;9.60;99.90;;;;;;5102784;27;19961;-55
2022/08/12 02:28:18;;;;;;;;;;;9.50;99.90;;;;;;5125032;27;19911;-56
2022/08/12 02:31:01;;;;;;;;;;;9.40;99.90;;;;;;5113401;27;19922;-56
2022/08/12 02:33:43;;;;;;;;;;;9.30;99.90;;;;;;5125094;27;20510;-56
2022/08/12 02:36:24;;;;;;;;;;;9.30;99.90;;;;;;5125079;27;19916;-56
2022/08/12 02:39:04;;;;;;;;;;;9.20;99.90;;;;;;5103671;27;19918;-55
2022/08/12 02:41:47;;;;;;;;;;;9.20;99.90;;;;;;5106590;27;19912;-55
2022/08/12 02:44:30;;;;;;;;;;;9.10;99.90;;;;;;5105274;27;19916;-56
2022/08/12 02:47:14;;;;;;;;;;;9.00;99.90;;;;;;5128067;27;19915;-56
2022/08/12 02:49:56;;;;;;;;;;;9.00;99.90;;;;;;5123051;27;20277;-55
2022/08/12 02:52:37;;;;;;;;;;;9.00;99.90;;;;;;5125281;27;20377;-57
2022/08/12 02:55:18;;;;;;;;;;;8.90;99.90;;;;;;5104172;27;20275;-55
2022/08/12 02:57:59;;;;;;;;;;;8.90;99.90;;;;;;5115113;27;19966;-55
2022/08/12 03:00:40;;;;;;;;;;;8.80;99.90;;;;;;5110317;27;19913;-56
2022/08/12 03:03:21;;;;;;;;;;;8.70;99.90;;;;;;5124424;27;19912;-56
2022/08/12 03:06:02;;;;;;;;;;;8.70;99.90;;;;;;5124627;27;20525;-55
2022/08/12 03:08:43;;;;;;;;;;;8.60;99.90;;;;;;5125294;27;19915;-55
2022/08/12 03:11:26;;;;;;;;;;;8.60;99.90;;;;;;5138788;27;19915;-55
2022/08/12 03:14:10;;;;;;;;;;;8.60;99.90;;;;;;5125920;27;19912;-55
2022/08/12 03:16:56;;;;;;;;;;;8.70;99.90;;;;;;5104100;27;19935;-57
2022/08/12 03:19:37;;;;;;;;;;;8.70;99.90;;;;;;5126137;27;19912;-57
2022/08/12 03:22:18;;;;;;;;;;;8.80;99.90;;;;;;5106267;27;19914;-55
2022/08/12 03:25:03;;;;;;;;;;;8.70;99.90;;;;;;5126704;27;19912;-55
2022/08/12 03:27:48;;;;;;;;;;;8.70;99.90;;;;;;5125742;27;19911;-56
2022/08/12 03:30:31;;;;;;;;;;;8.60;99.90;;;;;;5126578;27;19912;-56
2022/08/12 03:33:12;;;;;;;;;;;8.50;99.90;;;;;;5126996;27;19912;-55
2022/08/12 03:35:53;;;;;;;;;;;8.50;99.90;;;;;;5126745;27;20368;-55
2022/08/12 03:38:36;;;;;;;;;;;8.50;99.90;;;;;;5126680;27;19918;-55
2022/08/12 03:41:34;;;;;;;;;;;8.50;99.90;;;;;;5093153;27;19913;-56
2022/08/12 04:02:15;;;;;;;;;;;8.40;99.90;;;;;;5125154;27;20273;-56
2022/08/12 04:04:55;;;;;;;;;;;8.40;99.90;;;;;;5120690;27;19919;-56
2022/08/12 04:07:35;;;;;;;;;;;8.30;99.90;;;;;;5124427;27;19916;-56
2022/08/12 04:10:15;;;;;;;;;;;8.30;99.90;;;;;;5098856;27;20427;-56
2022/08/12 04:13:18;;;;;;;;;;;8.30;99.90;;;;;;5125170;27;19918;-55
2022/08/12 04:16:01;;;;;;;;;;;8.30;99.90;;;;;;5125193;27;19934;-56
2022/08/12 04:18:42;;;;;;;;;;;8.30;99.90;;;;;;5125437;27;20188;-56
2022/08/12 04:21:23;;;;;;;;;;;8.40;99.90;;;;;;5126499;27;19912;-56
2022/08/12 04:24:05;;;;;;;;;;;8.40;99.90;;;;;;5105948;27;20439;-56
2022/08/12 04:26:48;;;;;;;;;;;8.50;99.90;;;;;;5126504;27;20308;-55
2022/08/12 04:29:28;;;;;;;;;;;8.60;99.90;;;;;;5126073;27;19918;-56
2022/08/12 04:32:09;;;;;;;;;;;8.70;99.90;;;;;;5126432;27;19918;-56
2022/08/12 04:34:50;;;;;;;;;;;8.80;99.90;;;;;;5105963;27;20360;-56
2022/08/12 04:37:29;;;;;;;;;;;8.90;99.90;;;;;;5126858;27;19911;-56
2022/08/12 04:40:12;;;;;;;;;;;9.00;99.90;;;;;;5121882;27;19922;-56
2022/08/12 04:42:52;;;;;;;;;;;9.20;99.90;;;;;;5126788;27;19911;-56
2022/08/12 04:45:33;;;;;;;;;;;9.40;99.90;;;;;;5106593;27;19965;-55
2022/08/12 04:48:14;;;;;;;;;;;9.60;99.90;;;;;;5127115;27;19912;-56
2022/08/12 04:50:53;;;;;;;;;;;9.70;99.90;;;;;;5116127;27;19912;-56
2022/08/12 04:53:33;;;;;;;;;;;9.80;99.90;;;;;;5127012;27;20172;-56
2022/08/12 04:56:14;;;;;;;;;;;9.90;99.90;;;;;;5126783;27;19945;-56
2022/08/12 04:58:55;;;;;;;;;;;10.10;99.90;;;;;;5126365;27;20373;-56
2022/08/12 05:01:36;;;;;;;;;;;10.80;99.90;;;;;;5110336;27;20170;-56
2022/08/12 05:04:17;;;;;;;;;;;11.90;99.90;;;;;;5105731;27;19912;-56
2022/08/12 05:06:57;;;;;;;;;;;12.80;99.90;;;;;;5105783;27;19958;-56
2022/08/12 05:09:37;;;;;;;;;;;13.50;99.90;;;;;;5126212;27;19912;-56
2022/08/12 05:12:18;;;;;;;;;;;14.00;99.90;;;;;;5085788;28;19916;-56
2022/08/12 05:14:59;;;;;;;;;;;14.10;99.90;;;;;;5127002;27;19911;-55
2022/08/12 05:17:40;;;;;;;;;;;14.00;99.90;;;;;;5106033;27;19930;-55
2022/08/12 05:20:21;;;;;;;;;;;13.60;99.90;;;;;;5120803;27;19912;-56
2022/08/12 05:23:08;;;;;;;;;;;13.60;99.90;;;;;;5127329;27;20119;-56
2022/08/12 05:25:48;;;;;;;;;;;13.40;99.90;;;;;;5126418;27;19916;-56
2022/08/12 05:28:29;;;;;;;;;;;13.40;99.90;;;;;;5126397;27;20304;-56
2022/08/12 05:31:11;;;;;;;;;;;13.40;99.90;;;;;;5126795;27;19912;-56
2022/08/12 05:33:51;;;;;;;;;;;13.40;99.90;;;;;;5127063;27;19918;-56
2022/08/12 05:36:31;;;;;;;;;;;13.50;99.90;;;;;;5122014;27;19912;-56
2022/08/12 05:39:11;;;;;;;;;;;13.70;99.90;;;;;;5083631;28;19947;-56
2022/08/12 05:41:52;;;;;;;;;;;13.80;99.90;;;;;;5111432;27;19916;-56
2022/08/12 05:44:32;;;;;;;;;;;13.90;99.90;;;;;;5125721;27;20385;-56
2022/08/12 05:47:13;;;;;;;;;;;14.00;99.90;;;;;;5126732;27;19925;-55
2022/08/12 05:49:54;;;;;;;;;;;14.20;99.90;;;;;;5126414;27;20403;-56
2022/08/12 05:52:34;;;;;;;;;;;14.40;99.90;;;;;;5164307;27;20400;-56
2022/08/12 05:55:13;;;;;;;;;;;14.60;99.90;;;;;;5126937;27;19911;-55
2022/08/12 05:57:55;;;;;;;;;;;14.80;99.90;;;;;;5127277;27;20182;-55
2022/08/12 06:00:35;;;;;;;;;;;15.00;99.90;;;;;;5126849;27;20357;-56
2022/08/12 06:03:16;;;;;;;;;;;15.20;99.90;;;;;;5126680;27;19949;-55
2022/08/12 06:05:57;;;;;;;;;;;15.40;99.90;;;;;;5105948;27;19912;-56
2022/08/12 06:08:38;;;;;;;;;;;15.50;99.90;;;;;;5126981;27;19925;-55
2022/08/12 06:11:20;;;;;;;;;;;15.70;99.90;;;;;;5112232;27;19969;-56
2022/08/12 06:14:00;;;;;;;;;;;15.90;99.90;;;;;;5127594;27;19987;-56
2022/08/12 06:16:40;;;;;;;;;;;16.00;99.90;;;;;;5126879;27;19912;-56
2022/08/12 06:19:20;;;;;;;;;;;16.20;99.90;;;;;;5126183;27;19934;-55
2022/08/12 06:22:00;;;;;;;;;;;16.40;99.90;;;;;;5127026;27;20367;-55
2022/08/12 06:24:39;;;;;;;;;;;16.60;99.90;;;;;;5126931;27;19912;-56
2022/08/12 06:27:20;;;;;;;;;;;16.80;99.90;;;;;;5127599;27;19945;-55
2022/08/12 06:30:01;;;;;;;;;;;17.10;99.90;;;;;;5123374;27;19912;-55
2022/08/12 06:32:40;;;;;;;;;;;17.50;99.90;;;;;;5106591;27;19927;-55
2022/08/12 06:35:20;;;;;;;;;;;17.90;99.90;;;;;;5127307;27;19912;-55
2022/08/12 06:38:02;;;;;;;;;;;18.10;99.90;;;;;;5127370;27;19911;-56
2022/08/12 06:43:39;;;;;;;;;;;18.40;99.90;;;;;;5126943;27;19911;-55
2022/08/12 06:46:21;;;;;;;;;;;18.60;99.90;;;;;;5126424;27;20288;-55
2022/08/12 06:49:02;;;;;;;;;;;18.90;99.90;;;;;;5155758;27;19912;-55
2022/08/12 06:51:42;;;;;;;;;;;19.00;99.90;;;;;;5126350;27;19918;-55
2022/08/12 06:54:23;;;;;;;;;;;19.20;99.90;;;;;;5126688;27;19961;-55
2022/08/12 06:57:03;;;;;;;;;;;19.30;99.90;;;;;;5126986;27;19918;-55
2022/08/12 06:59:43;;;;;;;;;;;19.40;99.90;;;;;;5126327;27;19918;-56
2022/08/12 07:02:24;;;;;;;;;;;19.50;99.90;;;;;;5127293;27;20220;-55
2022/08/12 07:05:04;;;;;;;;;;;19.50;99.90;;;;;;5127006;27;19918;-56
2022/08/12 07:07:46;;;;;;;;;;;19.60;99.90;;;;;;5127027;27;19918;-55
2022/08/12 07:10:27;;;;;;;;;;;19.50;99.90;;;;;;5119376;27;19918;-55
2022/08/12 07:13:07;;;;;;;;;;;19.60;99.90;;;;;;5127185;27;19918;-55
2022/08/12 07:15:49;;;;;;;;;;;19.70;99.90;;;;;;5126698;27;19918;-55
2022/08/12 07:18:31;;;;;;;;;;;19.90;99.90;;;;;;5126565;27;19918;-55
2022/08/12 07:21:11;;;;;;;;;;;19.90;98.70;;;;;;5126744;27;19912;-56
2022/08/12 07:23:51;;;;;;;;;;;19.90;98.80;;;;;;5147549;27;19918;-56
2022/08/12 07:26:31;;;;;;;;;;;19.90;97.70;;;;;;5127312;27;19925;-55
2022/08/12 07:29:11;;;;;;;;;;;20.00;97.20;;;;;;5127205;27;19911;-55
2022/08/12 07:31:50;;;;;;;;;;;20.10;98.00;;;;;;5114757;27;19913;-55
2022/08/12 07:34:30;;;;;;;;;;;20.20;96.90;;;;;;5127135;27;19911;-55
2022/08/12 07:37:10;;;;;;;;;;;20.40;98.00;;;;;;5126722;27;19918;-55
2022/08/12 07:39:50;;;;;;;;;;;20.60;93.10;;;;;;5124583;27;19915;-55
2022/08/12 07:42:30;;;;;;;;;;;20.60;91.10;;;;;;5127034;27;19934;-56
2022/08/12 07:45:11;;;;;;;;;;;20.60;89.00;;;;;;5126719;27;20327;-55
2022/08/12 07:47:51;;;;;;;;;;;20.70;87.50;;;;;;5098001;27;19912;-56
2022/08/12 07:50:31;;;;;;;;;;;20.60;88.60;;;;;;5119212;27;19912;-55
2022/08/12 07:53:10;;;;;;;;;;;20.50;88.50;;;;;;5126878;27;20274;-55
2022/08/12 07:55:50;;;;;;;;;;;20.40;89.50;;;;;;5146746;27;20422;-55
2022/08/12 07:58:31;;;;;;;;;;;20.50;90.80;;;;;;5127113;27;19918;-56
2022/08/12 08:01:14;;;;;;;;;;;20.70;86.40;;;;;;5127643;27;19918;-55
2022/08/12 08:06:54;;;;;;;;;;;20.90;83.90;;;;;;5127062;27;19915;-56
2022/08/12 08:09:33;;;;;;;;;;;21.10;81.70;;;;;;5106230;27;19916;-56
2022/08/12 08:15:11;;;;;;;;;;;21.50;73.40;;;;;;5127083;27;19912;-56
2022/08/12 08:17:56;;;;;;;;;;;21.60;70.50;;;;;;5147586;27;19912;-56
2022/08/12 08:20:39;;;;;;;;;;;21.50;69.00;;;;;;5126232;27;20288;-56
2022/08/12 08:23:20;;;;;;;;;;;21.60;68.10;;;;;;5127134;27;20296;-56
2022/08/12 08:26:00;;;;;;;;;;;21.90;66.50;;;;;;5127546;27;19922;-56
2022/08/12 08:28:39;;;;;;;;;;;22.10;62.70;;;;;;5127620;27;19912;-55
2022/08/12 08:31:20;;;;;;;;;;;22.10;63.70;;;;;;5167309;27;19944;-56
2022/08/12 08:34:01;;;;;;;;;;;22.00;61.60;;;;;;5126988;27;19912;-55
2022/08/12 08:36:42;;;;;;;;;;;22.10;62.50;;;;;;5127009;27;19911;-55
2022/08/12 08:39:26;;;;;;;;;;;22.30;60.70;;;;;;5126975;27;19959;-55
2022/08/12 08:45:11;;;;;;;;;;;22.70;57.90;;;;;;5153083;27;19911;-55
2022/08/12 08:47:53;;;;;;;;;;;22.80;56.90;;;;;;5151363;27;19944;-56
2022/08/12 08:50:34;;;;;;;;;;;23.10;54.60;;;;;;5118932;27;20293;-55
2022/08/12 08:53:15;;;;;;;;;;;23.40;53.90;;;;;;5127241;27;19912;-56
2022/08/12 08:55:55;;;;;;;;;;;23.60;53.80;;;;;;5106602;27;19916;-56
2022/08/12 08:58:35;;;;;;;;;;;23.60;52.50;;;;;;5106228;27;20299;-55
2022/08/12 09:01:19;;;;;;;;;;;23.70;52.40;;;;;;5126986;27;19912;-55
2022/08/12 09:03:59;;;;;;;;;;;23.80;52.00;;;;;;5127292;27;19912;-55
2022/08/12 09:06:40;;;;;;;;;;;24.00;51.30;;;;;;5126945;27;19918;-56
2022/08/12 09:09:20;;;;;;;;;;;24.30;51.00;;;;;;5126327;27;19912;-55
2022/08/12 09:14:57;;;;;;;;;;;25.10;49.60;;;;;;5127165;27;20183;-57
2022/08/12 09:17:37;;;;;;;;;;;25.70;47.80;;;;;;5126635;27;20328;-56
2022/08/12 09:20:17;;;;;;;;;;;25.70;46.40;;;;;;5121367;27;20361;-56
2022/08/12 09:22:57;;;;;;;;;;;25.50;46.20;;;;;;5127058;27;19912;-56
2022/08/12 09:25:39;;;;;;;;;;;25.40;46.30;;;;;;5127374;27;19918;-55
2022/08/12 09:28:24;;;;;;;;;;;25.00;46.10;;;;;;5126947;27;19912;-55
2022/08/12 09:31:05;;;;;;;;;;;24.90;47.30;;;;;;5127119;27;19918;-55
2022/08/12 09:33:46;;;;;;;;;;;24.90;46.50;;;;;;5127214;27;20393;-56
2022/08/12 09:36:26;;;;;;;;;;;24.50;46.90;;;;;;5126958;27;19915;-55
2022/08/12 09:39:06;;;;;;;;;;;24.30;47.30;;;;;;5127157;27;19911;-55
2022/08/12 09:45:19;;;;;;;;;;;24.20;48.60;;;;;;5110000;27;19953;-55
2022/08/12 09:47:44;;;;;;;;;;;24.10;45.80;;;;;;5126809;27;20334;-56
2022/08/12 09:50:25;;;;;;;;;;;23.80;45.10;;;;;;5120589;27;19912;-55
2022/08/12 09:53:07;;;;;;;;;;;23.60;45.80;;;;;;5127040;27;20365;-55
2022/08/12 09:55:51;;;;;;;;;;;23.40;46.10;;;;;;5127061;27;20152;-56
2022/08/12 09:58:31;;;;;;;;;;;23.30;47.10;;;;;;5127776;27;19915;-55
2022/08/12 10:01:12;;;;;;;;;;;23.30;47.10;;;;;;5106568;27;19926;-55
2022/08/12 10:03:52;;;;;;;;;;;23.30;48.40;;;;;;5127220;27;19918;-55
2022/08/12 10:06:32;;;;;;;;;;;23.30;48.20;;;;;;5126831;27;19918;-55
2022/08/12 10:09:12;;;;;;;;;;;23.20;47.30;;;;;;5127445;27;19911;-56
2022/08/12 10:14:50;;;;;;;;;;;23.00;48.90;;;;;;5147862;27;19912;-55
2022/08/12 10:17:30;;;;;;;;;;;23.00;48.80;;;;;;5106017;27;19946;-56
2022/08/12 10:20:11;;;;;;;;;;;23.20;50.00;;;;;;5122663;27;20284;-56
2022/08/12 10:23:00;;;;;;;;;;;23.60;48.40;;;;;;5106403;27;19918;-56
2022/08/12 10:31:37;;;;;;;;;;;23.50;48.80;;;;;;5110375;27;19912;-55
2022/08/12 10:34:18;;;;;;;;;;;23.70;47.20;;;;;;5126485;27;19912;-55
2022/08/12 10:36:59;;;;;;;;;;;24.10;47.00;;;;;;5127107;27;19918;-55
2022/08/12 10:39:40;;;;;;;;;;;24.40;46.50;;;;;;5126865;27;20418;-55
2022/08/12 10:45:17;;;;;;;;;;;24.30;45.90;;;;;;5127046;27;19945;-55
2022/08/12 10:47:57;;;;;;;;;;;24.50;45.90;;;;;;5127031;27;19918;-56
2022/08/12 10:50:37;;;;;;;;;;;24.60;45.20;;;;;;5118569;27;19916;-55
2022/08/12 10:53:20;;;;;;;;;;;24.70;45.30;;;;;;5127489;27;19918;-58
2022/08/12 10:56:00;;;;;;;;;;;24.50;45.40;;;;;;5107356;27;20304;-55
2022/08/12 10:58:40;;;;;;;;;;;24.40;45.70;;;;;;5126917;27;19912;-57
2022/08/12 11:01:19;;;;;;;;;;;24.30;46.30;;;;;;5127175;27;19912;-54
2022/08/12 11:04:01;;;;;;;;;;;24.50;45.90;;;;;;5127128;27;19918;-56
2022/08/12 11:06:46;;;;;;;;;;;24.60;45.10;;;;;;5127088;27;19912;-55
2022/08/12 11:09:30;;;;;;;;;;;24.60;45.20;;;;;;5120971;27;20365;-56
2022/08/12 11:12:10;;;;;;;;;;;24.70;44.10;;;;;;5104446;27;19961;-55
2022/08/12 11:14:50;;;;;;;;;;;24.80;44.90;;;;;;5126067;27;19922;-56
2022/08/12 11:17:31;;;;;;;;;;;25.10;44.20;;;;;;5125625;27;19918;-55
2022/08/12 11:20:11;;;;;;;;;;;25.60;43.20;;;;;;5106390;27;19918;-56
2022/08/12 11:22:56;;;;;;;;;;;26.10;42.60;;;;;;5147488;27;20187;-55
2022/08/12 11:25:37;;;;;;;;;;;26.60;40.70;;;;;;5106765;27;19912;-55
2022/08/12 11:28:17;;;;;;;;;;;26.80;39.00;;;;;;5127082;27;19915;-56
2022/08/12 11:30:57;;;;;;;;;;;26.90;39.30;;;;;;5115679;27;20199;-55
2022/08/12 11:33:37;;;;;;;;;;;27.00;39.30;;;;;;5127486;27;20303;-55
2022/08/12 11:36:17;;;;;;;;;;;27.00;37.40;;;;;;5126657;27;20330;-56
2022/08/12 11:38:56;;;;;;;;;;;27.40;37.90;;;;;;5122553;27;19918;-56
2022/08/12 11:41:38;;;;;;;;;;;27.10;37.40;;;;;;5087445;27;19922;-55
2022/08/12 11:44:18;;;;;;;;;;;27.00;36.80;;;;;;5122338;27;20331;-55
2022/08/12 11:46:57;;;;;;;;;;;26.80;37.70;;;;;;5102881;27;20138;-56
2022/08/12 11:49:37;;;;;;;;;;;26.80;37.60;;;;;;5125680;27;19918;-55
2022/08/12 11:52:17;;;;;;;;;;;27.10;36.50;;;;;;5126986;27;19911;-56
2022/08/12 11:54:57;;;;;;;;;;;27.30;37.10;;;;;;5126974;27;20099;-56
2022/08/12 11:57:48;;;;;;;;;;;27.40;36.50;;;;;;5127344;27;19934;-56
2022/08/12 12:00:28;;;;;;;;;;;27.50;36.40;;;;;;5126632;27;19911;-55
2022/08/12 12:03:09;;;;;;;;;;;27.60;36.30;;;;;;5106360;27;19918;-56
2022/08/12 12:05:49;;;;;;;;;;;28.00;36.00;;;;;;5107033;27;19912;-56
2022/08/12 12:08:30;;;;;;;;;;;28.10;34.70;;;;;;5106488;27;19912;-55
2022/08/12 12:11:10;;;;;;;;;;;27.70;35.70;;;;;;5086114;28;19928;-56
2022/08/12 12:13:50;;;;;;;;;;;27.40;36.30;;;;;;5126690;27;19915;-55
2022/08/12 12:16:30;;;;;;;;;;;27.40;36.80;;;;;;5086153;28;19913;-55
2022/08/12 12:19:10;;;;;;;;;;;27.60;35.70;;;;;;5126951;27;19918;-55
2022/08/12 12:21:50;;;;;;;;;;;27.90;36.10;;;;;;5108173;27;19916;-56
2022/08/12 12:24:29;;;;;;;;;;;28.10;35.70;;;;;;5127136;27;20320;-55
2022/08/12 12:27:09;;;;;;;;;;;28.00;35.30;;;;;;5127240;27;19918;-57
2022/08/12 12:29:49;;;;;;;;;;;27.90;35.00;;;;;;5125743;27;19912;-55
2022/08/12 12:32:29;;;;;;;;;;;27.70;35.30;;;;;;5126700;27;19915;-57
2022/08/12 12:35:09;;;;;;;;;;;28.20;36.20;;;;;;5127235;27;19918;-55
2022/08/12 12:37:55;;;;;;;;;;;28.40;34.40;;;;;;5106502;27;19916;-55
2022/08/12 12:40:35;;;;;;;;;;;28.20;34.50;;;;;;5118945;27;19918;-54
2022/08/12 12:43:17;;;;;;;;;;;27.80;34.30;;;;;;5086370;28;19912;-55
2022/08/12 12:45:56;;;;;;;;;;;27.50;35.00;;;;;;5107139;27;19912;-56
2022/08/12 12:48:36;;;;;;;;;;;27.20;35.10;;;;;;5086365;27;19961;-55
2022/08/12 12:51:16;;;;;;;;;;;27.00;36.00;;;;;;5113667;27;19912;-55
2022/08/12 12:53:56;;;;;;;;;;;27.00;36.00;;;;;;5087091;28;20308;-55
2022/08/12 12:56:40;;;;;;;;;;;27.40;35.80;;;;;;5127827;27;19912;-55
2022/08/12 12:59:22;;;;;;;;;;;27.90;35.30;;;;;;5127168;27;19926;-55
2022/08/12 13:02:05;;;;;;;;;;;28.30;35.10;;;;;;5126820;27;20363;-55
2022/08/12 13:04:46;;;;;;;;;;;27.70;35.80;;;;;;5126961;27;20238;-55
2022/08/12 13:07:26;;;;;;;;;;;27.40;37.80;;;;;;5106347;27;19927;-56
2022/08/12 13:10:06;;;;;;;;;;;26.40;42.80;;;;;;5127470;27;19916;-55
2022/08/12 13:12:48;;;;;;;;;;;24.90;49.00;;;;;;5127067;27;20432;-55
2022/08/12 13:15:29;;;;;;;;;;;24.00;54.30;;;;;;5126306;27;19911;-56
2022/08/12 13:18:08;;;;;;;;;;;23.60;56.30;;;;;;5127353;27;19912;-56
2022/08/12 13:20:48;;;;;;;;;;;23.80;54.80;;;;;;5096465;27;20431;-55
2022/08/12 13:23:28;;;;;;;;;;;24.20;50.50;;;;;;5126605;27;20381;-55
2022/08/12 13:26:08;;;;;;;;;;;24.90;47.50;;;;;;5127428;27;19916;-55
2022/08/12 13:28:49;;;;;;;;;;;25.90;43.70;;;;;;5144025;27;19912;-56
2022/08/12 13:31:29;;;;;;;;;;;26.60;41.50;;;;;;5111768;27;19912;-55
2022/08/12 13:34:09;;;;;;;;;;;27.20;40.00;;;;;;5127104;27;19912;-55
2022/08/12 13:36:49;;;;;;;;;;;27.80;38.70;;;;;;5127550;27;19912;-56
2022/08/12 13:39:29;;;;;;;;;;;27.60;38.90;;;;;;5126602;27;19912;-55
2022/08/12 13:42:09;;;;;;;;;;;27.40;39.70;;;;;;5126798;27;19912;-55
2022/08/12 13:44:51;;;;;;;;;;;27.50;39.60;;;;;;5106434;27;19916;-56
2022/08/12 13:47:51;;;;;;;;;;;27.80;38.80;;;;;;5127055;27;19918;-55
2022/08/12 13:50:35;;;;;;;;;;;27.70;38.30;;;;;;5126675;27;19912;-57
2022/08/12 13:53:16;;;;;;;;;;;27.60;37.00;;;;;;5127037;27;19912;-55
2022/08/12 13:55:56;;;;;;;;;;;27.70;38.30;;;;;;5127624;27;19915;-57
2022/08/12 13:58:36;;;;;;;;;;;28.00;38.30;;;;;;5126878;27;19918;-54
2022/08/12 14:01:16;;;;;;;;;;;28.10;36.20;;;;;;5113300;27;19912;-55
2022/08/12 14:03:56;;;;;;;;;;;28.30;36.40;;;;;;5106535;27;19912;-55
2022/08/12 14:06:38;;;;;;;;;;;28.40;37.00;;;;;;5127226;27;19916;-56
2022/08/12 14:09:19;;;;;;;;;;;28.40;38.10;;;;;;5126908;27;19916;-56
2022/08/12 14:11:59;;;;;;;;;;;28.30;35.90;;;;;;5126907;27;19918;-55
2022/08/12 14:14:40;;;;;;;;;;;27.90;35.90;;;;;;5127020;27;19919;-55
2022/08/12 14:17:21;;;;;;;;;;;27.40;36.70;;;;;;5127153;27;20377;-55
2022/08/12 14:20:14;;;;;;;;;;;27.20;36.80;;;;;;5127227;27;19912;-55
2022/08/12 14:22:57;;;;;;;;;;;27.00;37.40;;;;;;5127057;27;19918;-55
2022/08/12 14:25:38;;;;;;;;;;;27.00;37.30;;;;;;5126677;27;19912;-55
2022/08/12 14:28:19;;;;;;;;;;;27.10;37.50;;;;;;5127375;27;19938;-56
2022/08/12 14:31:01;;;;;;;;;;;27.40;36.70;;;;;;5126617;27;19911;-56
2022/08/12 14:33:47;;;;;;;;;;;27.80;36.30;;;;;;5126574;27;20324;-56
2022/08/12 14:36:27;;;;;;;;;;;28.20;35.00;;;;;;5127059;27;19915;-55
2022/08/12 14:39:07;;;;;;;;;;;28.70;35.50;;;;;;5127573;27;20071;-57
2022/08/12 14:41:48;;;;;;;;;;;29.20;34.10;;;;;;5127114;27;20308;-57
2022/08/12 14:44:28;;;;;;;;;;;29.30;33.30;;;;;;5127004;27;19920;-56
2022/08/12 14:47:08;;;;;;;;;;;29.30;33.70;;;;;;5127327;27;19912;-58
2022/08/12 14:49:48;;;;;;;;;;;28.80;34.10;;;;;;5126833;27;19915;-56
2022/08/12 14:52:28;;;;;;;;;;;28.30;33.90;;;;;;5126535;27;19918;-57
2022/08/12 14:55:08;;;;;;;;;;;27.70;34.70;;;;;;5127359;27;19929;-55
2022/08/12 14:57:53;;;;;;;;;;;27.00;37.60;;;;;;5127254;27;19934;-58
2022/08/12 15:03:32;;;;;;;;;;;26.80;38.40;;;;;;5126893;27;19912;-56
2022/08/12 15:06:14;;;;;;;;;;;26.70;39.00;;;;;;5127251;27;20407;-55
2022/08/12 15:08:54;;;;;;;;;;;26.70;38.70;;;;;;5106352;27;19966;-55
2022/08/12 15:11:35;;;;;;;;;;;26.30;38.70;;;;;;5106905;27;19912;-56
2022/08/12 15:14:16;;;;;;;;;;;25.70;40.00;;;;;;5148032;27;19919;-55
2022/08/12 15:16:55;;;;;;;;;;;25.20;40.50;;;;;;5127204;27;19926;-55
2022/08/12 15:19:35;;;;;;;;;;;24.90;40.60;;;;;;5126540;27;19918;-55
2022/08/12 15:22:15;;;;;;;;;;;25.10;40.00;;;;;;5127472;27;19933;-56
2022/08/12 15:24:55;;;;;;;;;;;25.40;38.80;;;;;;5127393;27;20292;-56
2022/08/12 15:27:42;;;;;;;;;;;25.80;36.20;;;;;;5157671;27;19917;-57
2022/08/12 15:30:23;;;;;;;;;;;26.20;36.10;;;;;;5120982;27;19918;-55
2022/08/12 15:33:07;;;;;;;;;;;26.40;34.50;;;;;;5127115;27;19922;-55
2022/08/12 15:35:47;;;;;;;;;;;26.60;34.80;;;;;;5127119;27;19912;-55
2022/08/12 15:38:27;;;;;;;;;;;26.70;33.90;;;;;;5127094;27;19934;-55
2022/08/12 15:41:07;;;;;;;;;;;26.80;34.80;;;;;;5115151;27;20328;-56
2022/08/12 15:43:46;;;;;;;;;;;27.00;35.10;;;;;;5126890;27;20255;-56
2022/08/12 15:46:30;;;;;;;;;;;27.00;35.10;;;;;;5126868;27;19922;-55
2022/08/12 15:49:11;;;;;;;;;;;27.30;35.00;;;;;;5126678;27;19912;-58
2022/08/12 15:51:52;;;;;;;;;;;27.90;35.30;;;;;;5086731;28;19912;-56
2022/08/12 15:54:32;;;;;;;;;;;28.50;33.90;;;;;;5126552;27;19918;-56
2022/08/12 15:57:12;;;;;;;;;;;29.30;32.70;;;;;;5127204;27;19912;-55
2022/08/12 15:59:52;;;;;;;;;;;29.80;31.40;;;;;;5125220;27;19953;-56
2022/08/12 16:02:39;;;;;;;;;;;30.00;31.50;;;;;;5106407;27;19918;-56
2022/08/12 16:05:21;;;;;;;;;;;29.80;31.00;;;;;;5106871;27;19912;-57
2022/08/12 16:08:01;;;;;;;;;;;28.20;32.30;;;;;;5106402;27;19912;-57
2022/08/12 16:10:42;;;;;;;;;;;28.00;33.50;;;;;;5126246;27;19918;-55
2022/08/12 16:13:22;;;;;;;;;;;28.80;32.90;;;;;;5106029;27;20109;-56
2022/08/12 16:16:02;;;;;;;;;;;29.50;31.60;;;;;;5106550;27;19912;-55
2022/08/12 16:18:43;;;;;;;;;;;29.10;32.40;;;;;;5126774;27;19911;-55
2022/08/12 16:21:23;;;;;;;;;;;27.80;34.70;;;;;;5112380;27;19912;-55
2022/08/12 16:24:07;;;;;;;;;;;26.50;37.10;;;;;;5126891;27;19912;-55
2022/08/12 16:26:48;;;;;;;;;;;25.60;38.60;;;;;;5127067;27;19911;-57
2022/08/12 16:29:38;;;;;;;;;;;26.20;38.50;;;;;;5126655;27;19922;-55
2022/08/12 16:32:22;;;;;;;;;;;26.60;38.50;;;;;;5127085;27;19926;-55
2022/08/12 16:35:04;;;;;;;;;;;26.60;38.50;;;;;;5106574;27;19946;-56
2022/08/12 16:37:45;;;;;;;;;;;26.10;39.40;;;;;;5106837;27;19919;-57
2022/08/12 16:40:24;;;;;;;;;;;25.50;39.70;;;;;;5099861;27;19919;-55
2022/08/12 16:43:24;;;;;;;;;;;25.10;40.50;;;;;;5106922;27;19912;-55
2022/08/12 16:46:04;;;;;;;;;;;24.70;40.90;;;;;;5127959;27;19911;-55
2022/08/12 16:48:45;;;;;;;;;;;24.60;41.50;;;;;;5127248;27;20296;-55
2022/08/12 16:51:25;;;;;;;;;;;24.60;41.80;;;;;;5127260;27;20258;-58
2022/08/12 16:54:07;;;;;;;;;;;24.50;42.00;;;;;;5127752;27;19916;-55
2022/08/12 16:56:49;;;;;;;;;;;24.30;42.50;;;;;;5126277;27;19911;-57
2022/08/12 16:59:41;;;;;;;;;;;24.20;42.70;;;;;;5126276;27;19912;-56
2022/08/12 17:02:20;;;;;;;;;;;24.10;43.00;;;;;;5126871;27;19912;-57
2022/08/12 17:05:02;;;;;;;;;;;24.10;42.60;;;;;;5127667;27;20389;-55
2022/08/12 17:07:45;;;;;;;;;;;24.00;43.40;;;;;;5126786;27;20288;-57
2022/08/12 17:10:25;;;;;;;;;;;23.90;44.00;;;;;;5099976;27;19946;-55
2022/08/12 17:13:06;;;;;;;;;;;23.80;44.40;;;;;;5126857;27;19912;-56
2022/08/12 17:15:48;;;;;;;;;;;23.70;44.20;;;;;;5126738;27;20467;-55
2022/08/12 17:18:29;;;;;;;;;;;23.70;44.50;;;;;;5106306;27;19916;-55
2022/08/12 17:21:09;;;;;;;;;;;23.60;44.20;;;;;;5126860;27;19912;-55
2022/08/12 17:23:52;;;;;;;;;;;23.60;44.60;;;;;;5127049;27;20048;-55
2022/08/12 17:26:33;;;;;;;;;;;23.60;44.70;;;;;;5106719;27;19932;-55
2022/08/12 17:29:18;;;;;;;;;;;23.70;44.20;;;;;;5126845;27;20397;-55